sensor_id;sensor_type;location;lat;lon;timestamp;temperature;humidity
58638;DHT22;54976;51.510;7.522;2023-06-22T00:00:36;21.80;67.40
58638;DHT22;54976;51.510;7.522;2023-06-22T00:03:36;21.80;67.60
58638;DHT22;54976;51.510;7.522;2023-06-22T00:06:37;21.70;67.70
58638;DHT22;54976;51.510;7.522;2023-06-22T00:09:38;21.60;68.10
58638;DHT22;54976;51.510;7.522;2023-06-22T00:12:38;21.60;68.30
58638;DHT22;54976;51.510;7.522;2023-06-22T00:15:40;21.60;69.20
58638;DHT22;54976;51.510;7.522;2023-06-22T00:18:41;21.50;69.90
58638;DHT22;54976;51.510;7.522;2023-06-22T00:21:47;21.50;70.40
58638;DHT22;54976;51.510;7.522;2023-06-22T00:24:53;21.50;71.10
58638;DHT22;54976;51.510;7.522;2023-06-22T00:27:53;21.50;71.20
58638;DHT22;54976;51.510;7.522;2023-06-22T00:30:54;21.40;71.60
58638;DHT22;54976;51.510;7.522;2023-06-22T00:33:54;21.40;72.00
58638;DHT22;54976;51.510;7.522;2023-06-22T00:36:55;21.40;72.00
58638;DHT22;54976;51.510;7.522;2023-06-22T00:39:56;21.40;71.90
58638;DHT22;54976;51.510;7.522;2023-06-22T00:42:57;21.40;72.70
58638;DHT22;54976;51.510;7.522;2023-06-22T00:45:58;21.30;72.70
58638;DHT22;54976;51.510;7.522;2023-06-22T00:48:59;21.30;72.60
58638;DHT22;54976;51.510;7.522;2023-06-22T00:52:00;21.30;73.20
58638;DHT22;54976;51.510;7.522;2023-06-22T00:55:03;21.30;73.70
58638;DHT22;54976;51.510;7.522;2023-06-22T00:58:08;21.30;73.90
58638;DHT22;54976;51.510;7.522;2023-06-22T01:01:10;21.20;74.10
58638;DHT22;54976;51.510;7.522;2023-06-22T01:04:11;21.20;74.20
58638;DHT22;54976;51.510;7.522;2023-06-22T01:08:05;21.20;74.50
58638;DHT22;54976;51.510;7.522;2023-06-22T01:11:08;21.20;74.70
58638;DHT22;54976;51.510;7.522;2023-06-22T01:14:26;21.20;74.90
58638;DHT22;54976;51.510;7.522;2023-06-22T01:17:29;21.20;75.30
58638;DHT22;54976;51.510;7.522;2023-06-22T01:20:30;21.10;75.60
58638;DHT22;54976;51.510;7.522;2023-06-22T01:26:43;21.10;76.30
58638;DHT22;54976;51.510;7.522;2023-06-22T01:29:51;21.10;76.30
58638;DHT22;54976;51.510;7.522;2023-06-22T01:32:54;21.10;76.50
58638;DHT22;54976;51.510;7.522;2023-06-22T01:35:55;21.00;77.10
58638;DHT22;54976;51.510;7.522;2023-06-22T01:38:57;20.90;77.50
58638;DHT22;54976;51.510;7.522;2023-06-22T01:41:58;20.90;78.10
58638;DHT22;54976;51.510;7.522;2023-06-22T01:44:59;20.90;78.60
58638;DHT22;54976;51.510;7.522;2023-06-22T01:48:00;20.80;78.70
58638;DHT22;54976;51.510;7.522;2023-06-22T01:51:02;20.80;78.70
58638;DHT22;54976;51.510;7.522;2023-06-22T01:54:05;20.80;79.30
58638;DHT22;54976;51.510;7.522;2023-06-22T01:57:06;20.80;79.40
58638;DHT22;54976;51.510;7.522;2023-06-22T02:00:13;20.80;80.10
58638;DHT22;54976;51.510;7.522;2023-06-22T02:03:19;20.80;80.30
58638;DHT22;54976;51.510;7.522;2023-06-22T02:06:39;20.80;80.30
58638;DHT22;54976;51.510;7.522;2023-06-22T02:09:45;20.70;80.70
58638;DHT22;54976;51.510;7.522;2023-06-22T02:12:46;20.80;81.10
58638;DHT22;54976;51.510;7.522;2023-06-22T02:15:48;20.70;81.30
58638;DHT22;54976;51.510;7.522;2023-06-22T02:18:50;20.70;82.20
58638;DHT22;54976;51.510;7.522;2023-06-22T02:21:53;20.70;82.40
58638;DHT22;54976;51.510;7.522;2023-06-22T02:24:54;20.70;82.50
58638;DHT22;54976;51.510;7.522;2023-06-22T02:27:55;20.70;82.90
58638;DHT22;54976;51.510;7.522;2023-06-22T02:30:55;20.60;85.00
58638;DHT22;54976;51.510;7.522;2023-06-22T02:33:58;20.50;84.90
58638;DHT22;54976;51.510;7.522;2023-06-22T02:36:58;20.50;85.20
58638;DHT22;54976;51.510;7.522;2023-06-22T02:40:01;20.50;84.90
58638;DHT22;54976;51.510;7.522;2023-06-22T02:43:04;20.50;84.60
58638;DHT22;54976;51.510;7.522;2023-06-22T02:46:05;20.50;85.40
58638;DHT22;54976;51.510;7.522;2023-06-22T02:49:05;20.40;85.40
58638;DHT22;54976;51.510;7.522;2023-06-22T02:52:06;20.40;85.60
58638;DHT22;54976;51.510;7.522;2023-06-22T02:55:07;20.30;85.70
58638;DHT22;54976;51.510;7.522;2023-06-22T02:58:08;20.30;87.00
58638;DHT22;54976;51.510;7.522;2023-06-22T03:01:09;20.30;86.30
58638;DHT22;54976;51.510;7.522;2023-06-22T03:04:10;20.20;87.00
58638;DHT22;54976;51.510;7.522;2023-06-22T03:07:11;20.20;87.30
58638;DHT22;54976;51.510;7.522;2023-06-22T03:10:12;20.20;88.00
58638;DHT22;54976;51.510;7.522;2023-06-22T03:13:13;20.20;88.10
58638;DHT22;54976;51.510;7.522;2023-06-22T03:16:13;20.10;88.60
58638;DHT22;54976;51.510;7.522;2023-06-22T03:19:14;20.10;89.00
58638;DHT22;54976;51.510;7.522;2023-06-22T03:22:15;20.10;88.70
58638;DHT22;54976;51.510;7.522;2023-06-22T03:25:15;20.10;89.10
58638;DHT22;54976;51.510;7.522;2023-06-22T03:28:16;20.10;89.80
58638;DHT22;54976;51.510;7.522;2023-06-22T03:31:16;20.10;90.10
58638;DHT22;54976;51.510;7.522;2023-06-22T03:34:22;20.00;90.00
58638;DHT22;54976;51.510;7.522;2023-06-22T03:37:22;20.10;90.10
58638;DHT22;54976;51.510;7.522;2023-06-22T03:40:23;20.10;90.10
58638;DHT22;54976;51.510;7.522;2023-06-22T03:43:23;20.10;90.20
58638;DHT22;54976;51.510;7.522;2023-06-22T03:46:24;20.10;90.40
58638;DHT22;54976;51.510;7.522;2023-06-22T03:49:24;20.10;90.50
58638;DHT22;54976;51.510;7.522;2023-06-22T03:52:25;20.10;90.80
58638;DHT22;54976;51.510;7.522;2023-06-22T03:55:26;20.00;91.00
58638;DHT22;54976;51.510;7.522;2023-06-22T03:58:26;20.00;91.00
58638;DHT22;54976;51.510;7.522;2023-06-22T04:01:27;20.00;91.10
58638;DHT22;54976;51.510;7.522;2023-06-22T04:04:27;20.10;91.10
58638;DHT22;54976;51.510;7.522;2023-06-22T04:07:28;20.10;91.30
58638;DHT22;54976;51.510;7.522;2023-06-22T04:10:28;20.00;91.50
58638;DHT22;54976;51.510;7.522;2023-06-22T04:13:29;20.00;91.60
58638;DHT22;54976;51.510;7.522;2023-06-22T04:16:30;20.00;91.50
58638;DHT22;54976;51.510;7.522;2023-06-22T04:19:30;20.10;91.50
58638;DHT22;54976;51.510;7.522;2023-06-22T04:22:31;20.20;91.60
58638;DHT22;54976;51.510;7.522;2023-06-22T04:25:31;20.20;91.40
58638;DHT22;54976;51.510;7.522;2023-06-22T04:28:32;20.20;91.40
58638;DHT22;54976;51.510;7.522;2023-06-22T04:31:35;20.30;91.50
58638;DHT22;54976;51.510;7.522;2023-06-22T04:34:38;20.30;91.20
58638;DHT22;54976;51.510;7.522;2023-06-22T04:37:39;20.40;91.20
58638;DHT22;54976;51.510;7.522;2023-06-22T04:40:40;20.50;90.90
58638;DHT22;54976;51.510;7.522;2023-06-22T04:43:40;20.60;90.70
58638;DHT22;54976;51.510;7.522;2023-06-22T04:46:41;20.80;90.30
58638;DHT22;54976;51.510;7.522;2023-06-22T04:49:42;20.90;90.30
58638;DHT22;54976;51.510;7.522;2023-06-22T04:52:43;20.90;90.20
58638;DHT22;54976;51.510;7.522;2023-06-22T04:55:44;20.90;89.60
58638;DHT22;54976;51.510;7.522;2023-06-22T04:58:46;20.90;88.70
58638;DHT22;54976;51.510;7.522;2023-06-22T05:01:47;20.70;89.80
58638;DHT22;54976;51.510;7.522;2023-06-22T05:04:48;20.60;90.00
58638;DHT22;54976;51.510;7.522;2023-06-22T05:07:52;20.50;89.90
58638;DHT22;54976;51.510;7.522;2023-06-22T05:11:00;20.60;90.20
58638;DHT22;54976;51.510;7.522;2023-06-22T05:14:00;20.50;90.80
58638;DHT22;54976;51.510;7.522;2023-06-22T05:17:01;20.50;91.00
58638;DHT22;54976;51.510;7.522;2023-06-22T05:20:04;20.40;90.80
58638;DHT22;54976;51.510;7.522;2023-06-22T05:23:06;20.50;90.80
58638;DHT22;54976;51.510;7.522;2023-06-22T05:26:07;20.60;90.40
58638;DHT22;54976;51.510;7.522;2023-06-22T05:29:09;20.70;90.40
58638;DHT22;54976;51.510;7.522;2023-06-22T05:32:10;20.80;90.30
58638;DHT22;54976;51.510;7.522;2023-06-22T05:35:11;20.80;90.10
58638;DHT22;54976;51.510;7.522;2023-06-22T05:38:11;21.00;90.00
58638;DHT22;54976;51.510;7.522;2023-06-22T05:41:12;21.10;89.30
58638;DHT22;54976;51.510;7.522;2023-06-22T05:44:12;21.20;88.40
58638;DHT22;54976;51.510;7.522;2023-06-22T05:47:13;21.30;88.20
58638;DHT22;54976;51.510;7.522;2023-06-22T05:50:14;21.40;87.60
58638;DHT22;54976;51.510;7.522;2023-06-22T05:53:14;21.50;88.10
58638;DHT22;54976;51.510;7.522;2023-06-22T05:56:16;21.40;89.00
58638;DHT22;54976;51.510;7.522;2023-06-22T05:59:17;21.40;89.30
58638;DHT22;54976;51.510;7.522;2023-06-22T06:02:17;21.40;89.80
58638;DHT22;54976;51.510;7.522;2023-06-22T06:05:18;21.50;90.00
58638;DHT22;54976;51.510;7.522;2023-06-22T06:08:19;21.50;90.00
58638;DHT22;54976;51.510;7.522;2023-06-22T06:11:20;21.50;90.00
58638;DHT22;54976;51.510;7.522;2023-06-22T06:14:20;21.60;90.40
58638;DHT22;54976;51.510;7.522;2023-06-22T06:17:21;21.60;90.50
58638;DHT22;54976;51.510;7.522;2023-06-22T06:20:24;21.60;90.70
58638;DHT22;54976;51.510;7.522;2023-06-22T06:23:25;21.70;90.70
58638;DHT22;54976;51.510;7.522;2023-06-22T06:26:25;21.70;90.60
58638;DHT22;54976;51.510;7.522;2023-06-22T06:29:30;21.80;90.50
58638;DHT22;54976;51.510;7.522;2023-06-22T06:32:30;21.90;90.60
58638;DHT22;54976;51.510;7.522;2023-06-22T06:35:31;21.90;90.90
58638;DHT22;54976;51.510;7.522;2023-06-22T06:38:32;21.80;91.20
58638;DHT22;54976;51.510;7.522;2023-06-22T06:41:32;21.60;92.20
58638;DHT22;54976;51.510;7.522;2023-06-22T06:44:33;21.50;92.90
58638;DHT22;54976;51.510;7.522;2023-06-22T06:47:33;21.50;93.10
58638;DHT22;54976;51.510;7.522;2023-06-22T06:50:34;21.50;93.20
58638;DHT22;54976;51.510;7.522;2023-06-22T06:53:37;21.50;93.20
58638;DHT22;54976;51.510;7.522;2023-06-22T06:56:38;21.70;93.00
58638;DHT22;54976;51.510;7.522;2023-06-22T06:59:38;22.00;92.30
58638;DHT22;54976;51.510;7.522;2023-06-22T07:02:40;22.20;92.20
58638;DHT22;54976;51.510;7.522;2023-06-22T07:05:41;22.20;91.60
58638;DHT22;54976;51.510;7.522;2023-06-22T07:08:42;22.20;91.70
58638;DHT22;54976;51.510;7.522;2023-06-22T07:11:43;22.10;91.50
58638;DHT22;54976;51.510;7.522;2023-06-22T07:14:43;22.00;91.50
58638;DHT22;54976;51.510;7.522;2023-06-22T07:17:44;22.00;91.80
58638;DHT22;54976;51.510;7.522;2023-06-22T07:20:45;22.10;91.40
58638;DHT22;54976;51.510;7.522;2023-06-22T07:23:45;22.20;91.30
58638;DHT22;54976;51.510;7.522;2023-06-22T07:26:47;22.10;91.20
58638;DHT22;54976;51.510;7.522;2023-06-22T07:29:48;21.70;91.60
58638;DHT22;54976;51.510;7.522;2023-06-22T07:32:49;21.70;92.10
58638;DHT22;54976;51.510;7.522;2023-06-22T07:35:49;21.70;92.00
58638;DHT22;54976;51.510;7.522;2023-06-22T07:38:52;21.70;92.10
58638;DHT22;54976;51.510;7.522;2023-06-22T07:41:53;21.50;92.60
58638;DHT22;54976;51.510;7.522;2023-06-22T07:44:54;21.50;92.70
58638;DHT22;54976;51.510;7.522;2023-06-22T07:47:55;21.50;92.90
58638;DHT22;54976;51.510;7.522;2023-06-22T07:50:55;21.40;93.10
58638;DHT22;54976;51.510;7.522;2023-06-22T07:53:56;21.50;93.10
58638;DHT22;54976;51.510;7.522;2023-06-22T07:56:57;21.60;93.20
58638;DHT22;54976;51.510;7.522;2023-06-22T07:59:58;21.70;93.00
58638;DHT22;54976;51.510;7.522;2023-06-22T08:02:59;21.70;93.40
58638;DHT22;54976;51.510;7.522;2023-06-22T08:06:00;21.70;93.70
58638;DHT22;54976;51.510;7.522;2023-06-22T08:09:00;21.60;94.10
58638;DHT22;54976;51.510;7.522;2023-06-22T08:12:01;21.60;94.60
58638;DHT22;54976;51.510;7.522;2023-06-22T08:15:02;21.80;94.30
58638;DHT22;54976;51.510;7.522;2023-06-22T08:18:03;22.10;94.20
58638;DHT22;54976;51.510;7.522;2023-06-22T08:21:03;22.30;93.20
58638;DHT22;54976;51.510;7.522;2023-06-22T08:24:04;22.40;92.70
58638;DHT22;54976;51.510;7.522;2023-06-22T08:27:07;22.60;92.10
58638;DHT22;54976;51.510;7.522;2023-06-22T08:30:16;22.70;92.10
58638;DHT22;54976;51.510;7.522;2023-06-22T08:33:18;22.80;91.60
58638;DHT22;54976;51.510;7.522;2023-06-22T08:36:19;23.20;90.80
58638;DHT22;54976;51.510;7.522;2023-06-22T08:39:20;23.60;90.30
58638;DHT22;54976;51.510;7.522;2023-06-22T08:42:20;24.10;89.70
58638;DHT22;54976;51.510;7.522;2023-06-22T08:45:21;24.60;85.30
58638;DHT22;54976;51.510;7.522;2023-06-22T08:48:22;24.90;85.20
58638;DHT22;54976;51.510;7.522;2023-06-22T08:51:22;24.80;84.10
58638;DHT22;54976;51.510;7.522;2023-06-22T08:54:23;25.20;81.50
58638;DHT22;54976;51.510;7.522;2023-06-22T08:57:24;25.40;83.00
58638;DHT22;54976;51.510;7.522;2023-06-22T09:00:24;26.00;80.70
58638;DHT22;54976;51.510;7.522;2023-06-22T09:03:25;26.20;78.20
58638;DHT22;54976;51.510;7.522;2023-06-22T09:06:26;26.10;76.70
58638;DHT22;54976;51.510;7.522;2023-06-22T09:09:27;26.30;76.90
58638;DHT22;54976;51.510;7.522;2023-06-22T09:12:27;26.80;75.10
58638;DHT22;54976;51.510;7.522;2023-06-22T09:15:30;27.40;71.90
58638;DHT22;54976;51.510;7.522;2023-06-22T09:18:31;27.60;70.80
58638;DHT22;54976;51.510;7.522;2023-06-22T09:21:32;28.10;69.00
58638;DHT22;54976;51.510;7.522;2023-06-22T09:24:33;28.60;65.60
58638;DHT22;54976;51.510;7.522;2023-06-22T09:27:33;28.70;63.00
58638;DHT22;54976;51.510;7.522;2023-06-22T09:30:34;28.20;66.70
58638;DHT22;54976;51.510;7.522;2023-06-22T09:33:36;28.40;64.80
58638;DHT22;54976;51.510;7.522;2023-06-22T09:36:36;28.30;65.00
58638;DHT22;54976;51.510;7.522;2023-06-22T09:39:40;28.60;62.30
58638;DHT22;54976;51.510;7.522;2023-06-22T09:42:41;28.90;61.30
58638;DHT22;54976;51.510;7.522;2023-06-22T09:45:42;29.30;61.00
58638;DHT22;54976;51.510;7.522;2023-06-22T09:48:43;29.90;59.90
58638;DHT22;54976;51.510;7.522;2023-06-22T09:51:43;30.30;59.20
58638;DHT22;54976;51.510;7.522;2023-06-22T09:54:44;29.80;58.40
58638;DHT22;54976;51.510;7.522;2023-06-22T09:57:44;29.10;60.50
58638;DHT22;54976;51.510;7.522;2023-06-22T10:00:45;28.80;60.80
58638;DHT22;54976;51.510;7.522;2023-06-22T10:03:46;28.40;63.20
58638;DHT22;54976;51.510;7.522;2023-06-22T10:06:46;28.30;64.40
58638;DHT22;54976;51.510;7.522;2023-06-22T10:09:48;28.20;65.20
58638;DHT22;54976;51.510;7.522;2023-06-22T10:12:56;28.20;65.90
58638;DHT22;54976;51.510;7.522;2023-06-22T10:15:57;28.00;67.00
58638;DHT22;54976;51.510;7.522;2023-06-22T10:18:58;28.00;68.00
58638;DHT22;54976;51.510;7.522;2023-06-22T10:21:59;28.20;66.60
58638;DHT22;54976;51.510;7.522;2023-06-22T10:24:59;28.00;67.50
58638;DHT22;54976;51.510;7.522;2023-06-22T10:28:00;28.30;68.30
58638;DHT22;54976;51.510;7.522;2023-06-22T10:31:01;28.10;66.80
58638;DHT22;54976;51.510;7.522;2023-06-22T10:34:01;28.00;68.10
58638;DHT22;54976;51.510;7.522;2023-06-22T10:37:02;28.00;68.90
58638;DHT22;54976;51.510;7.522;2023-06-22T10:40:03;28.20;68.40
58638;DHT22;54976;51.510;7.522;2023-06-22T10:43:04;28.50;67.20
58638;DHT22;54976;51.510;7.522;2023-06-22T10:46:06;28.40;67.40
58638;DHT22;54976;51.510;7.522;2023-06-22T10:49:06;28.30;67.10
58638;DHT22;54976;51.510;7.522;2023-06-22T10:52:08;28.40;66.80
58638;DHT22;54976;51.510;7.522;2023-06-22T10:55:09;28.00;66.40
58638;DHT22;54976;51.510;7.522;2023-06-22T10:58:10;27.90;66.00
58638;DHT22;54976;51.510;7.522;2023-06-22T11:01:11;27.80;64.80
58638;DHT22;54976;51.510;7.522;2023-06-22T11:04:11;27.60;66.30
58638;DHT22;54976;51.510;7.522;2023-06-22T11:07:12;27.50;67.30
58638;DHT22;54976;51.510;7.522;2023-06-22T11:10:13;27.20;64.80
58638;DHT22;54976;51.510;7.522;2023-06-22T11:13:13;27.10;67.20
58638;DHT22;54976;51.510;7.522;2023-06-22T11:16:14;27.00;67.70
58638;DHT22;54976;51.510;7.522;2023-06-22T11:19:16;26.80;66.90
58638;DHT22;54976;51.510;7.522;2023-06-22T11:22:17;26.50;69.10
58638;DHT22;54976;51.510;7.522;2023-06-22T11:25:18;26.40;72.90
58638;DHT22;54976;51.510;7.522;2023-06-22T11:28:18;26.30;78.70
58638;DHT22;54976;51.510;7.522;2023-06-22T11:31:19;26.10;79.00
58638;DHT22;54976;51.510;7.522;2023-06-22T11:34:20;25.80;85.20
58638;DHT22;54976;51.510;7.522;2023-06-22T11:37:20;25.50;91.40
58638;DHT22;54976;51.510;7.522;2023-06-22T11:40:21;25.40;92.30
58638;DHT22;54976;51.510;7.522;2023-06-22T11:43:23;25.20;93.70
58638;DHT22;54976;51.510;7.522;2023-06-22T11:46:23;24.90;93.80
58638;DHT22;54976;51.510;7.522;2023-06-22T11:49:24;24.80;95.10
58638;DHT22;54976;51.510;7.522;2023-06-22T11:52:25;24.50;95.50
58638;DHT22;54976;51.510;7.522;2023-06-22T11:55:27;24.40;96.40
58638;DHT22;54976;51.510;7.522;2023-06-22T11:58:28;24.20;96.90
58638;DHT22;54976;51.510;7.522;2023-06-22T12:01:28;24.10;97.70
58638;DHT22;54976;51.510;7.522;2023-06-22T12:04:29;23.90;98.20
58638;DHT22;54976;51.510;7.522;2023-06-22T12:07:30;23.70;99.10
58638;DHT22;54976;51.510;7.522;2023-06-22T12:10:30;23.50;99.90
58638;DHT22;54976;51.510;7.522;2023-06-22T12:13:31;23.40;99.90
58638;DHT22;54976;51.510;7.522;2023-06-22T12:16:31;23.40;99.90
58638;DHT22;54976;51.510;7.522;2023-06-22T12:19:32;23.30;99.90
58638;DHT22;54976;51.510;7.522;2023-06-22T12:22:33;23.10;99.90
58638;DHT22;54976;51.510;7.522;2023-06-22T12:25:34;23.10;99.90
58638;DHT22;54976;51.510;7.522;2023-06-22T12:28:34;23.00;99.90
58638;DHT22;54976;51.510;7.522;2023-06-22T12:31:36;22.90;99.90
58638;DHT22;54976;51.510;7.522;2023-06-22T12:34:39;22.80;99.90
58638;DHT22;54976;51.510;7.522;2023-06-22T12:37:41;22.60;99.90
58638;DHT22;54976;51.510;7.522;2023-06-22T12:40:42;22.50;99.90
58638;DHT22;54976;51.510;7.522;2023-06-22T12:43:43;22.40;99.90
58638;DHT22;54976;51.510;7.522;2023-06-22T12:46:43;22.20;99.90
58638;DHT22;54976;51.510;7.522;2023-06-22T12:49:44;22.10;99.90
58638;DHT22;54976;51.510;7.522;2023-06-22T12:52:44;22.10;99.90
58638;DHT22;54976;51.510;7.522;2023-06-22T12:55:45;22.10;99.90
58638;DHT22;54976;51.510;7.522;2023-06-22T12:58:46;21.90;99.90
58638;DHT22;54976;51.510;7.522;2023-06-22T13:01:47;21.90;99.90
58638;DHT22;54976;51.510;7.522;2023-06-22T13:04:47;22.00;99.90
58638;DHT22;54976;51.510;7.522;2023-06-22T13:07:48;22.30;99.90
58638;DHT22;54976;51.510;7.522;2023-06-22T13:10:49;22.50;99.90
58638;DHT22;54976;51.510;7.522;2023-06-22T13:13:49;22.70;99.90
58638;DHT22;54976;51.510;7.522;2023-06-22T13:16:50;22.80;99.90
58638;DHT22;54976;51.510;7.522;2023-06-22T13:19:51;23.00;99.90
58638;DHT22;54976;51.510;7.522;2023-06-22T13:22:51;23.40;99.90
58638;DHT22;54976;51.510;7.522;2023-06-22T13:25:52;23.80;99.90
58638;DHT22;54976;51.510;7.522;2023-06-22T13:28:53;23.80;99.90
58638;DHT22;54976;51.510;7.522;2023-06-22T13:31:53;23.70;99.90
58638;DHT22;54976;51.510;7.522;2023-06-22T13:34:57;23.80;99.90
58638;DHT22;54976;51.510;7.522;2023-06-22T13:37:58;23.80;99.90
58638;DHT22;54976;51.510;7.522;2023-06-22T13:40:59;24.00;99.90
58638;DHT22;54976;51.510;7.522;2023-06-22T13:44:00;24.50;99.90
58638;DHT22;54976;51.510;7.522;2023-06-22T13:47:00;25.20;99.90
58638;DHT22;54976;51.510;7.522;2023-06-22T13:50:01;26.10;99.90
58638;DHT22;54976;51.510;7.522;2023-06-22T13:53:02;26.70;95.60
58638;DHT22;54976;51.510;7.522;2023-06-22T13:56:03;26.70;95.00
58638;DHT22;54976;51.510;7.522;2023-06-22T13:59:03;26.50;96.50
58638;DHT22;54976;51.510;7.522;2023-06-22T14:02:04;26.10;94.50
58638;DHT22;54976;51.510;7.522;2023-06-22T14:05:05;25.80;96.10
58638;DHT22;54976;51.510;7.522;2023-06-22T14:08:06;25.40;96.30
58638;DHT22;54976;51.510;7.522;2023-06-22T14:11:07;24.80;96.20
58638;DHT22;54976;51.510;7.522;2023-06-22T14:14:07;24.70;97.50
58638;DHT22;54976;51.510;7.522;2023-06-22T14:17:08;24.30;97.40
58638;DHT22;54976;51.510;7.522;2023-06-22T14:20:09;24.00;98.10
58638;DHT22;54976;51.510;7.522;2023-06-22T14:23:09;24.00;98.80
58638;DHT22;54976;51.510;7.522;2023-06-22T14:26:10;23.90;99.40
58638;DHT22;54976;51.510;7.522;2023-06-22T14:29:10;24.00;99.90
58638;DHT22;54976;51.510;7.522;2023-06-22T14:32:11;24.10;99.40
58638;DHT22;54976;51.510;7.522;2023-06-22T14:35:11;24.30;98.90
58638;DHT22;54976;51.510;7.522;2023-06-22T14:38:12;24.10;98.10
58638;DHT22;54976;51.510;7.522;2023-06-22T14:41:13;23.90;99.00
58638;DHT22;54976;51.510;7.522;2023-06-22T14:44:15;23.80;99.30
58638;DHT22;54976;51.510;7.522;2023-06-22T14:47:16;23.70;99.70
58638;DHT22;54976;51.510;7.522;2023-06-22T14:50:18;23.70;99.90
58638;DHT22;54976;51.510;7.522;2023-06-22T14:53:19;23.70;99.90
58638;DHT22;54976;51.510;7.522;2023-06-22T14:56:20;23.70;99.90
58638;DHT22;54976;51.510;7.522;2023-06-22T14:59:20;23.70;99.90
58638;DHT22;54976;51.510;7.522;2023-06-22T15:02:21;23.70;99.90
58638;DHT22;54976;51.510;7.522;2023-06-22T15:05:22;23.70;99.90
58638;DHT22;54976;51.510;7.522;2023-06-22T15:08:24;23.70;99.90
58638;DHT22;54976;51.510;7.522;2023-06-22T15:11:26;24.00;99.90
58638;DHT22;54976;51.510;7.522;2023-06-22T15:14:27;24.30;99.90
58638;DHT22;54976;51.510;7.522;2023-06-22T15:17:28;24.70;98.90
58638;DHT22;54976;51.510;7.522;2023-06-22T15:20:30;24.80;98.70
58638;DHT22;54976;51.510;7.522;2023-06-22T15:23:32;24.70;98.70
58638;DHT22;54976;51.510;7.522;2023-06-22T15:26:33;24.30;98.70
58638;DHT22;54976;51.510;7.522;2023-06-22T15:29:33;24.00;99.50
58638;DHT22;54976;51.510;7.522;2023-06-22T15:32:34;23.70;99.90
58638;DHT22;54976;51.510;7.522;2023-06-22T15:35:35;23.50;99.90
58638;DHT22;54976;51.510;7.522;2023-06-22T15:38:35;23.30;99.90
58638;DHT22;54976;51.510;7.522;2023-06-22T15:41:39;23.30;99.90
58638;DHT22;54976;51.510;7.522;2023-06-22T15:44:41;23.20;99.90
58638;DHT22;54976;51.510;7.522;2023-06-22T15:47:41;23.20;99.90
58638;DHT22;54976;51.510;7.522;2023-06-22T15:50:42;23.30;99.90
58638;DHT22;54976;51.510;7.522;2023-06-22T15:53:42;23.10;99.90
58638;DHT22;54976;51.510;7.522;2023-06-22T15:56:43;22.90;99.90
58638;DHT22;54976;51.510;7.522;2023-06-22T15:59:44;22.80;99.90
58638;DHT22;54976;51.510;7.522;2023-06-22T16:02:46;22.70;99.90
58638;DHT22;54976;51.510;7.522;2023-06-22T16:05:47;22.60;99.90
58638;DHT22;54976;51.510;7.522;2023-06-22T16:08:47;22.60;99.90
58638;DHT22;54976;51.510;7.522;2023-06-22T16:11:48;22.70;99.90
58638;DHT22;54976;51.510;7.522;2023-06-22T16:14:50;22.50;99.90
58638;DHT22;54976;51.510;7.522;2023-06-22T16:17:50;22.50;99.90
58638;DHT22;54976;51.510;7.522;2023-06-22T16:20:51;22.40;99.90
58638;DHT22;54976;51.510;7.522;2023-06-22T16:23:51;22.50;99.90
58638;DHT22;54976;51.510;7.522;2023-06-22T16:26:52;22.40;99.90
58638;DHT22;54976;51.510;7.522;2023-06-22T16:29:53;22.20;99.90
58638;DHT22;54976;51.510;7.522;2023-06-22T16:32:55;22.10;99.90
58638;DHT22;54976;51.510;7.522;2023-06-22T16:35:58;21.90;99.90
58638;DHT22;54976;51.510;7.522;2023-06-22T16:39:00;21.80;99.90
58638;DHT22;54976;51.510;7.522;2023-06-22T16:42:01;21.70;99.90
58638;DHT22;54976;51.510;7.522;2023-06-22T16:45:02;21.60;99.90
58638;DHT22;54976;51.510;7.522;2023-06-22T16:48:04;21.50;99.90
58638;DHT22;54976;51.510;7.522;2023-06-22T16:51:05;21.30;99.90
58638;DHT22;54976;51.510;7.522;2023-06-22T16:54:06;21.30;99.90
58638;DHT22;54976;51.510;7.522;2023-06-22T16:57:07;21.30;99.90
58638;DHT22;54976;51.510;7.522;2023-06-22T17:00:08;21.20;99.90
58638;DHT22;54976;51.510;7.522;2023-06-22T17:03:17;21.20;99.90
58638;DHT22;54976;51.510;7.522;2023-06-22T17:06:19;21.20;99.90
58638;DHT22;54976;51.510;7.522;2023-06-22T17:09:21;21.20;99.90
58638;DHT22;54976;51.510;7.522;2023-06-22T17:12:22;21.30;99.90
58638;DHT22;54976;51.510;7.522;2023-06-22T17:15:28;21.20;99.90
58638;DHT22;54976;51.510;7.522;2023-06-22T17:18:30;21.20;99.90
58638;DHT22;54976;51.510;7.522;2023-06-22T17:21:33;21.30;99.90
58638;DHT22;54976;51.510;7.522;2023-06-22T17:24:33;21.40;99.90
58638;DHT22;54976;51.510;7.522;2023-06-22T17:27:35;21.30;99.90
58638;DHT22;54976;51.510;7.522;2023-06-22T17:30:36;21.30;99.90
58638;DHT22;54976;51.510;7.522;2023-06-22T17:33:38;21.30;99.90
58638;DHT22;54976;51.510;7.522;2023-06-22T17:36:46;21.30;99.90
58638;DHT22;54976;51.510;7.522;2023-06-22T17:39:51;21.10;99.90
58638;DHT22;54976;51.510;7.522;2023-06-22T17:43:03;21.10;99.90
58638;DHT22;54976;51.510;7.522;2023-06-22T17:46:07;21.00;99.90
58638;DHT22;54976;51.510;7.522;2023-06-22T17:49:09;21.00;99.90
58638;DHT22;54976;51.510;7.522;2023-06-22T17:52:16;20.90;99.90
58638;DHT22;54976;51.510;7.522;2023-06-22T17:55:25;20.90;99.90
58638;DHT22;54976;51.510;7.522;2023-06-22T17:58:25;20.90;99.90
58638;DHT22;54976;51.510;7.522;2023-06-22T18:01:31;20.90;99.90
58638;DHT22;54976;51.510;7.522;2023-06-22T18:04:32;20.90;99.90
58638;DHT22;54976;51.510;7.522;2023-06-22T18:07:34;20.90;99.90
58638;DHT22;54976;51.510;7.522;2023-06-22T18:10:38;20.80;99.90
58638;DHT22;54976;51.510;7.522;2023-06-22T18:13:41;20.70;99.90
58638;DHT22;54976;51.510;7.522;2023-06-22T18:16:47;20.70;99.90
58638;DHT22;54976;51.510;7.522;2023-06-22T18:19:48;20.70;99.90
58638;DHT22;54976;51.510;7.522;2023-06-22T18:22:50;20.60;99.90
58638;DHT22;54976;51.510;7.522;2023-06-22T18:25:50;20.70;99.90
58638;DHT22;54976;51.510;7.522;2023-06-22T18:28:55;20.70;99.90
58638;DHT22;54976;51.510;7.522;2023-06-22T18:31:56;20.60;99.90
58638;DHT22;54976;51.510;7.522;2023-06-22T18:34:58;20.70;99.90
58638;DHT22;54976;51.510;7.522;2023-06-22T18:37:59;20.70;99.90
58638;DHT22;54976;51.510;7.522;2023-06-22T18:41:00;20.70;99.90
58638;DHT22;54976;51.510;7.522;2023-06-22T18:44:01;20.60;99.90
58638;DHT22;54976;51.510;7.522;2023-06-22T18:47:03;20.60;99.90
58638;DHT22;54976;51.510;7.522;2023-06-22T18:50:08;20.60;99.90
58638;DHT22;54976;51.510;7.522;2023-06-22T18:53:16;20.60;99.90
58638;DHT22;54976;51.510;7.522;2023-06-22T18:56:18;20.60;99.90
58638;DHT22;54976;51.510;7.522;2023-06-22T18:59:47;20.40;99.90
58638;DHT22;54976;51.510;7.522;2023-06-22T19:05:52;20.10;99.90
58638;DHT22;54976;51.510;7.522;2023-06-22T19:09:12;20.10;99.90
58638;DHT22;54976;51.510;7.522;2023-06-22T19:12:30;20.00;99.90